Terminal Aerodrome Forecast
Issued by NWS Dallas/Fort Worth, TX

Home | Current Version | Previous Version | Text Only | Print | Product List | Glossary On
Versions: 1 2 3 4 5 6 7 8 9 10 11 12 13 14 15 16 17 18 19 20 21 22 23 24 25 26
000
FTUS44 KFWD 272300
TAFDFW
TAF
KDFW 272321Z 2800/2906 18004KT P6SM SCT250
     FM281500 18010KT P6SM FEW250
     FM281900 18014G24KT P6SM SCT250
     FM290100 18014KT P6SM SCT250=

USA.gov is the U.S. government's official web portal to all federal, state and local government web resources and services.